Washington, Indiana
Current Conditions -  °F | °C
As of 7:55 AM on Friday 31 Oct 2014 (Local Time) from KDCY Reporting Station
Light Rain Light Rain  
Wind Chill: 42°   Ceiling: 7000
Heat Index: 46°   Visibility: 7mi
Dew Point: 44°   Wind: 7mph
Humidity: 96%   Direction: 300°WNW
Pressure: 30.04"   Gusts: NA
Location:  38.66°N, 87.17°W
Report Text: KDCY 311255Z AUTO 30006KT 7SM -RA BKN070 OVC080 08/07 A3004 RMK AO2 T00750069
Loading
Personal Weather Stations






























Interactive Weather Map
Tropical Storm Tracking
New forecast layout! Learn more

10-Day Weather Forecast

Advertisements
Track Severe Weather on mobile